Corner Brook, Canada
Current Conditions -  °F | °C
As of 2:00 PM on Saturday 25 Oct 2014 (Local Time) from CYDF Reporting Station
Overcast Overcast  
Wind Chill: 31°   Ceiling: 1800
Heat Index: 41°   Visibility: 12mi
Dew Point: 39°   Wind: 23mph
Humidity: 93%   Direction: 40°NE
Pressure: 29.56"   Gusts: 31mph
Location:  48.95°N, 57.95°W
Report Text: CYDF 251600Z 04020G27KT 12SM OVC018 05/04 A2956 RMK SC8 CIG RAG SLP011
Loading
Personal Weather Stations






























Interactive Weather Map
Tropical Storm Tracking
New forecast layout! Learn more

10-Day Weather Forecast

Advertisements
Track Severe Weather on mobile